sensor_id;sensor_type;location;lat;lon;timestamp;temperature;humidity
49729;DHT22;35617;50.714;7.114;2022-08-18T00:02:01;22.20;91.10
49729;DHT22;35617;50.714;7.114;2022-08-18T00:04:28;22.20;91.50
49729;DHT22;35617;50.714;7.114;2022-08-18T00:06:53;22.30;91.20
49729;DHT22;35617;50.714;7.114;2022-08-18T00:09:20;22.20;91.20
49729;DHT22;35617;50.714;7.114;2022-08-18T00:11:45;22.30;91.20
49729;DHT22;35617;50.714;7.114;2022-08-18T00:14:17;22.20;91.20
49729;DHT22;35617;50.714;7.114;2022-08-18T00:16:43;22.20;91.40
49729;DHT22;35617;50.714;7.114;2022-08-18T00:19:09;22.10;91.50
49729;DHT22;35617;50.714;7.114;2022-08-18T00:21:34;22.00;91.90
49729;DHT22;35617;50.714;7.114;2022-08-18T00:24:00;21.90;92.00
49729;DHT22;35617;50.714;7.114;2022-08-18T00:26:26;21.90;92.10
49729;DHT22;35617;50.714;7.114;2022-08-18T00:28:51;21.80;92.30
49729;DHT22;35617;50.714;7.114;2022-08-18T00:31:17;21.80;92.40
49729;DHT22;35617;50.714;7.114;2022-08-18T00:33:42;21.70;92.50
49729;DHT22;35617;50.714;7.114;2022-08-18T00:36:09;21.60;92.70
49729;DHT22;35617;50.714;7.114;2022-08-18T00:38:36;21.60;92.90
49729;DHT22;35617;50.714;7.114;2022-08-18T00:41:02;21.50;93.10
49729;DHT22;35617;50.714;7.114;2022-08-18T00:43:31;21.40;93.40
49729;DHT22;35617;50.714;7.114;2022-08-18T00:45:59;21.40;93.70
49729;DHT22;35617;50.714;7.114;2022-08-18T00:48:25;21.30;93.80
49729;DHT22;35617;50.714;7.114;2022-08-18T00:50:59;21.30;93.90
49729;DHT22;35617;50.714;7.114;2022-08-18T00:53:28;21.30;94.10
49729;DHT22;35617;50.714;7.114;2022-08-18T00:56:04;21.20;94.40
49729;DHT22;35617;50.714;7.114;2022-08-18T00:58:48;21.10;94.60
49729;DHT22;35617;50.714;7.114;2022-08-18T01:01:19;21.10;94.80
49729;DHT22;35617;50.714;7.114;2022-08-18T01:03:49;21.00;94.90
49729;DHT22;35617;50.714;7.114;2022-08-18T01:06:54;21.00;95.00
49729;DHT22;35617;50.714;7.114;2022-08-18T01:09:21;21.00;95.10
49729;DHT22;35617;50.714;7.114;2022-08-18T01:11:47;21.00;95.30
49729;DHT22;35617;50.714;7.114;2022-08-18T01:14:15;20.90;95.30
49729;DHT22;35617;50.714;7.114;2022-08-18T01:16:44;21.00;95.30
49729;DHT22;35617;50.714;7.114;2022-08-18T01:19:28;21.10;95.30
49729;DHT22;35617;50.714;7.114;2022-08-18T01:25:15;21.20;95.10
49729;DHT22;35617;50.714;7.114;2022-08-18T01:28:00;21.20;95.20
49729;DHT22;35617;50.714;7.114;2022-08-18T01:30:29;21.10;95.20
49729;DHT22;35617;50.714;7.114;2022-08-18T01:32:56;21.20;95.20
49729;DHT22;35617;50.714;7.114;2022-08-18T01:35:24;21.20;95.20
49729;DHT22;35617;50.714;7.114;2022-08-18T01:37:51;21.20;95.30
49729;DHT22;35617;50.714;7.114;2022-08-18T01:40:18;21.10;95.40
49729;DHT22;35617;50.714;7.114;2022-08-18T01:42:44;21.00;95.60
49729;DHT22;35617;50.714;7.114;2022-08-18T01:45:13;20.90;95.80
49729;DHT22;35617;50.714;7.114;2022-08-18T01:47:39;20.90;95.90
49729;DHT22;35617;50.714;7.114;2022-08-18T01:50:06;20.90;96.10
49729;DHT22;35617;50.714;7.114;2022-08-18T01:52:32;20.80;96.20
49729;DHT22;35617;50.714;7.114;2022-08-18T01:55:00;20.80;96.30
49729;DHT22;35617;50.714;7.114;2022-08-18T01:57:27;20.70;96.60
49729;DHT22;35617;50.714;7.114;2022-08-18T01:59:53;20.60;96.70
49729;DHT22;35617;50.714;7.114;2022-08-18T02:02:22;20.60;96.80
49729;DHT22;35617;50.714;7.114;2022-08-18T02:04:52;20.60;96.90
49729;DHT22;35617;50.714;7.114;2022-08-18T02:07:19;20.50;97.00
49729;DHT22;35617;50.714;7.114;2022-08-18T02:09:45;20.50;97.20
49729;DHT22;35617;50.714;7.114;2022-08-18T02:12:11;20.50;97.30
49729;DHT22;35617;50.714;7.114;2022-08-18T02:14:38;20.50;97.40
49729;DHT22;35617;50.714;7.114;2022-08-18T02:17:06;20.50;97.50
49729;DHT22;35617;50.714;7.114;2022-08-18T02:19:38;20.50;97.50
49729;DHT22;35617;50.714;7.114;2022-08-18T02:22:06;20.50;97.50
49729;DHT22;35617;50.714;7.114;2022-08-18T02:24:32;20.60;97.40
49729;DHT22;35617;50.714;7.114;2022-08-18T02:26:58;20.60;97.60
49729;DHT22;35617;50.714;7.114;2022-08-18T02:29:23;20.60;97.30
49729;DHT22;35617;50.714;7.114;2022-08-18T02:31:49;20.60;97.30
49729;DHT22;35617;50.714;7.114;2022-08-18T02:34:16;20.60;97.40
49729;DHT22;35617;50.714;7.114;2022-08-18T02:36:42;20.60;97.40
49729;DHT22;35617;50.714;7.114;2022-08-18T02:39:07;20.60;97.30
49729;DHT22;35617;50.714;7.114;2022-08-18T02:41:33;20.60;97.60
49729;DHT22;35617;50.714;7.114;2022-08-18T02:43:59;20.50;97.40
49729;DHT22;35617;50.714;7.114;2022-08-18T02:46:25;20.50;97.40
49729;DHT22;35617;50.714;7.114;2022-08-18T02:48:51;20.50;97.50
49729;DHT22;35617;50.714;7.114;2022-08-18T02:51:17;20.50;97.50
49729;DHT22;35617;50.714;7.114;2022-08-18T02:53:46;20.50;97.60
49729;DHT22;35617;50.714;7.114;2022-08-18T02:56:21;20.50;97.80
49729;DHT22;35617;50.714;7.114;2022-08-18T02:58:58;20.50;97.80
49729;DHT22;35617;50.714;7.114;2022-08-18T03:01:33;20.50;97.80
49729;DHT22;35617;50.714;7.114;2022-08-18T03:03:59;20.50;97.80
49729;DHT22;35617;50.714;7.114;2022-08-18T03:06:26;20.40;97.60
49729;DHT22;35617;50.714;7.114;2022-08-18T03:08:52;20.40;97.80
49729;DHT22;35617;50.714;7.114;2022-08-18T03:11:21;20.40;97.80
49729;DHT22;35617;50.714;7.114;2022-08-18T03:13:47;20.40;97.80
49729;DHT22;35617;50.714;7.114;2022-08-18T03:16:13;20.30;98.20
49729;DHT22;35617;50.714;7.114;2022-08-18T03:18:40;20.30;97.90
49729;DHT22;35617;50.714;7.114;2022-08-18T03:21:13;20.30;98.00
49729;DHT22;35617;50.714;7.114;2022-08-18T03:23:39;20.30;98.40
49729;DHT22;35617;50.714;7.114;2022-08-18T03:26:07;20.20;98.10
49729;DHT22;35617;50.714;7.114;2022-08-18T03:28:40;20.20;98.20
49729;DHT22;35617;50.714;7.114;2022-08-18T03:31:07;20.30;98.30
49729;DHT22;35617;50.714;7.114;2022-08-18T03:33:32;20.30;98.20
49729;DHT22;35617;50.714;7.114;2022-08-18T03:36:07;20.40;98.10
49729;DHT22;35617;50.714;7.114;2022-08-18T03:38:33;20.40;98.20
49729;DHT22;35617;50.714;7.114;2022-08-18T03:40:58;20.40;98.10
49729;DHT22;35617;50.714;7.114;2022-08-18T03:43:24;20.40;98.20
49729;DHT22;35617;50.714;7.114;2022-08-18T03:45:51;20.40;98.30
49729;DHT22;35617;50.714;7.114;2022-08-18T03:48:19;20.40;98.40
49729;DHT22;35617;50.714;7.114;2022-08-18T03:50:45;20.40;98.30
49729;DHT22;35617;50.714;7.114;2022-08-18T03:53:11;20.50;98.30
49729;DHT22;35617;50.714;7.114;2022-08-18T03:55:40;20.50;98.20
49729;DHT22;35617;50.714;7.114;2022-08-18T03:58:05;20.60;98.10
49729;DHT22;35617;50.714;7.114;2022-08-18T04:00:32;20.70;98.00
49729;DHT22;35617;50.714;7.114;2022-08-18T04:03:01;20.70;97.90
49729;DHT22;35617;50.714;7.114;2022-08-18T04:05:27;20.80;97.70
49729;DHT22;35617;50.714;7.114;2022-08-18T04:07:54;20.80;97.60
49729;DHT22;35617;50.714;7.114;2022-08-18T04:10:24;20.80;97.50
49729;DHT22;35617;50.714;7.114;2022-08-18T04:12:50;20.90;97.40
49729;DHT22;35617;50.714;7.114;2022-08-18T04:15:16;20.90;97.40
49729;DHT22;35617;50.714;7.114;2022-08-18T04:17:42;20.90;97.40
49729;DHT22;35617;50.714;7.114;2022-08-18T04:20:11;21.00;97.40
49729;DHT22;35617;50.714;7.114;2022-08-18T04:22:37;21.00;97.40
49729;DHT22;35617;50.714;7.114;2022-08-18T04:25:03;21.00;97.40
49729;DHT22;35617;50.714;7.114;2022-08-18T04:27:28;21.10;97.40
49729;DHT22;35617;50.714;7.114;2022-08-18T04:29:54;21.00;97.40
49729;DHT22;35617;50.714;7.114;2022-08-18T04:32:23;21.10;97.40
49729;DHT22;35617;50.714;7.114;2022-08-18T04:34:48;21.10;97.40
49729;DHT22;35617;50.714;7.114;2022-08-18T04:37:15;21.10;97.30
49729;DHT22;35617;50.714;7.114;2022-08-18T04:39:42;21.10;97.40
49729;DHT22;35617;50.714;7.114;2022-08-18T04:42:08;21.10;97.40
49729;DHT22;35617;50.714;7.114;2022-08-18T04:44:35;21.20;97.50
49729;DHT22;35617;50.714;7.114;2022-08-18T04:47:03;21.10;97.50
49729;DHT22;35617;50.714;7.114;2022-08-18T04:49:29;21.10;97.60
49729;DHT22;35617;50.714;7.114;2022-08-18T04:51:57;21.10;97.60
49729;DHT22;35617;50.714;7.114;2022-08-18T04:54:41;21.10;97.80
49729;DHT22;35617;50.714;7.114;2022-08-18T04:57:15;21.00;97.80
49729;DHT22;35617;50.714;7.114;2022-08-18T04:59:46;21.10;97.90
49729;DHT22;35617;50.714;7.114;2022-08-18T05:02:13;21.10;97.90
49729;DHT22;35617;50.714;7.114;2022-08-18T05:04:40;21.10;97.90
49729;DHT22;35617;50.714;7.114;2022-08-18T05:07:10;21.10;97.80
49729;DHT22;35617;50.714;7.114;2022-08-18T05:09:37;21.10;97.90
49729;DHT22;35617;50.714;7.114;2022-08-18T05:12:04;21.00;98.00
49729;DHT22;35617;50.714;7.114;2022-08-18T05:14:31;21.00;98.20
49729;DHT22;35617;50.714;7.114;2022-08-18T05:17:01;20.90;98.50
49729;DHT22;35617;50.714;7.114;2022-08-18T05:19:28;20.90;98.20
49729;DHT22;35617;50.714;7.114;2022-08-18T05:21:55;20.90;98.20
49729;DHT22;35617;50.714;7.114;2022-08-18T05:24:22;20.90;98.30
49729;DHT22;35617;50.714;7.114;2022-08-18T05:26:50;20.90;98.30
49729;DHT22;35617;50.714;7.114;2022-08-18T05:29:16;20.90;98.30
49729;DHT22;35617;50.714;7.114;2022-08-18T05:31:41;21.00;98.20
49729;DHT22;35617;50.714;7.114;2022-08-18T05:34:07;20.90;98.20
49729;DHT22;35617;50.714;7.114;2022-08-18T05:44:17;20.80;98.70
49729;DHT22;35617;50.714;7.114;2022-08-18T05:46:49;20.80;98.70
49729;DHT22;35617;50.714;7.114;2022-08-18T05:49:17;20.70;98.90
49729;DHT22;35617;50.714;7.114;2022-08-18T05:52:08;20.60;98.80
49729;DHT22;35617;50.714;7.114;2022-08-18T05:54:45;20.60;98.90
49729;DHT22;35617;50.714;7.114;2022-08-18T05:57:36;20.50;99.10
49729;DHT22;35617;50.714;7.114;2022-08-18T06:00:05;20.50;99.40
49729;DHT22;35617;50.714;7.114;2022-08-18T06:02:46;20.40;99.60
49729;DHT22;35617;50.714;7.114;2022-08-18T06:05:39;20.40;99.70
49729;DHT22;35617;50.714;7.114;2022-08-18T06:08:09;20.40;99.70
49729;DHT22;35617;50.714;7.114;2022-08-18T06:10:36;20.40;99.90
49729;DHT22;35617;50.714;7.114;2022-08-18T06:13:03;20.40;99.90
49729;DHT22;35617;50.714;7.114;2022-08-18T06:37:20;20.20;99.90
49729;DHT22;35617;50.714;7.114;2022-08-18T06:39:50;20.20;99.90
49729;DHT22;35617;50.714;7.114;2022-08-18T06:42:22;20.20;99.90
49729;DHT22;35617;50.714;7.114;2022-08-18T06:44:54;20.20;99.90
49729;DHT22;35617;50.714;7.114;2022-08-18T06:50:33;20.20;99.90
49729;DHT22;35617;50.714;7.114;2022-08-18T06:53:04;20.10;99.90
49729;DHT22;35617;50.714;7.114;2022-08-18T06:55:36;20.10;99.90
49729;DHT22;35617;50.714;7.114;2022-08-18T06:58:24;20.00;99.90
49729;DHT22;35617;50.714;7.114;2022-08-18T07:03:22;20.10;99.90
49729;DHT22;35617;50.714;7.114;2022-08-18T07:06:05;20.10;99.90
49729;DHT22;35617;50.714;7.114;2022-08-18T07:13:40;20.20;99.90
49729;DHT22;35617;50.714;7.114;2022-08-18T07:18:41;20.10;99.90
49729;DHT22;35617;50.714;7.114;2022-08-18T07:21:08;20.20;99.90
49729;DHT22;35617;50.714;7.114;2022-08-18T07:23:36;20.10;99.90
49729;DHT22;35617;50.714;7.114;2022-08-18T07:26:14;20.10;99.90
49729;DHT22;35617;50.714;7.114;2022-08-18T07:28:46;20.10;99.90
49729;DHT22;35617;50.714;7.114;2022-08-18T07:31:16;20.00;99.90
49729;DHT22;35617;50.714;7.114;2022-08-18T07:33:51;20.00;99.90
49729;DHT22;35617;50.714;7.114;2022-08-18T07:36:23;20.00;99.90
49729;DHT22;35617;50.714;7.114;2022-08-18T07:39:05;19.90;99.90
49729;DHT22;35617;50.714;7.114;2022-08-18T07:41:35;19.90;99.90
49729;DHT22;35617;50.714;7.114;2022-08-18T07:46:44;19.90;99.90
49729;DHT22;35617;50.714;7.114;2022-08-18T07:49:35;19.90;99.90
49729;DHT22;35617;50.714;7.114;2022-08-18T07:52:20;19.90;99.90
49729;DHT22;35617;50.714;7.114;2022-08-18T08:00:15;20.10;99.90
49729;DHT22;35617;50.714;7.114;2022-08-18T08:06:06;20.20;99.90
49729;DHT22;35617;50.714;7.114;2022-08-18T08:08:51;20.20;99.90
49729;DHT22;35617;50.714;7.114;2022-08-18T08:14:13;20.50;99.90
49729;DHT22;35617;50.714;7.114;2022-08-18T08:25:02;20.80;99.90
49729;DHT22;35617;50.714;7.114;2022-08-18T08:30:19;20.70;99.90
49729;DHT22;35617;50.714;7.114;2022-08-18T08:33:17;20.80;99.90
49729;DHT22;35617;50.714;7.114;2022-08-18T08:35:49;20.90;99.90
49729;DHT22;35617;50.714;7.114;2022-08-18T08:38:24;21.00;99.90
49729;DHT22;35617;50.714;7.114;2022-08-18T08:41:02;21.10;99.90
49729;DHT22;35617;50.714;7.114;2022-08-18T08:43:35;21.20;99.90
49729;DHT22;35617;50.714;7.114;2022-08-18T08:48:48;21.40;99.90
49729;DHT22;35617;50.714;7.114;2022-08-18T08:56:48;21.60;99.20
49729;DHT22;35617;50.714;7.114;2022-08-18T08:59:17;21.70;99.00
49729;DHT22;35617;50.714;7.114;2022-08-18T09:13:47;21.80;98.40
49729;DHT22;35617;50.714;7.114;2022-08-18T09:24:49;22.20;97.80
49729;DHT22;35617;50.714;7.114;2022-08-18T09:27:40;22.40;97.70
49729;DHT22;35617;50.714;7.114;2022-08-18T09:30:35;22.50;97.50
49729;DHT22;35617;50.714;7.114;2022-08-18T09:38:50;22.80;96.80
49729;DHT22;35617;50.714;7.114;2022-08-18T09:41:39;22.70;96.70
49729;DHT22;35617;50.714;7.114;2022-08-18T09:44:12;22.60;96.80
49729;DHT22;35617;50.714;7.114;2022-08-18T09:51:57;22.50;97.30
49729;DHT22;35617;50.714;7.114;2022-08-18T09:54:25;22.50;97.20
49729;DHT22;35617;50.714;7.114;2022-08-18T10:10:29;22.40;97.50
49729;DHT22;35617;50.714;7.114;2022-08-18T10:18:52;22.80;96.90
49729;DHT22;35617;50.714;7.114;2022-08-18T10:21:28;22.80;96.60
49729;DHT22;35617;50.714;7.114;2022-08-18T10:29:04;23.10;96.40
49729;DHT22;35617;50.714;7.114;2022-08-18T10:32:20;23.20;96.00
49729;DHT22;35617;50.714;7.114;2022-08-18T10:34:39;23.30;95.90
49729;DHT22;35617;50.714;7.114;2022-08-18T10:37:20;23.50;95.80
49729;DHT22;35617;50.714;7.114;2022-08-18T10:39:50;23.50;95.60
49729;DHT22;35617;50.714;7.114;2022-08-18T10:42:19;23.60;95.30
49729;DHT22;35617;50.714;7.114;2022-08-18T10:44:47;23.80;95.10
49729;DHT22;35617;50.714;7.114;2022-08-18T10:47:24;23.90;94.90
49729;DHT22;35617;50.714;7.114;2022-08-18T10:49:51;24.20;94.60
49729;DHT22;35617;50.714;7.114;2022-08-18T11:03:33;24.90;93.20
49729;DHT22;35617;50.714;7.114;2022-08-18T11:06:06;25.20;92.90
49729;DHT22;35617;50.714;7.114;2022-08-18T11:08:50;25.20;92.40
49729;DHT22;35617;50.714;7.114;2022-08-18T11:11:21;25.30;92.20
49729;DHT22;35617;50.714;7.114;2022-08-18T11:19:38;25.30;91.80
49729;DHT22;35617;50.714;7.114;2022-08-18T11:22:04;25.20;91.80
49729;DHT22;35617;50.714;7.114;2022-08-18T11:24:31;25.10;91.90
49729;DHT22;35617;50.714;7.114;2022-08-18T11:27:17;25.10;91.90
49729;DHT22;35617;50.714;7.114;2022-08-18T11:29:42;25.00;91.80
49729;DHT22;35617;50.714;7.114;2022-08-18T11:32:24;25.10;91.80
49729;DHT22;35617;50.714;7.114;2022-08-18T11:39:54;25.50;91.20
49729;DHT22;35617;50.714;7.114;2022-08-18T11:42:28;25.60;90.80
49729;DHT22;35617;50.714;7.114;2022-08-18T11:44:54;25.70;90.70
49729;DHT22;35617;50.714;7.114;2022-08-18T11:47:26;25.80;90.70
49729;DHT22;35617;50.714;7.114;2022-08-18T11:50:12;25.80;90.40
49729;DHT22;35617;50.714;7.114;2022-08-18T11:52:52;26.00;90.10
49729;DHT22;35617;50.714;7.114;2022-08-18T11:55:29;26.10;89.90
49729;DHT22;35617;50.714;7.114;2022-08-18T11:57:58;26.20;88.90
49729;DHT22;35617;50.714;7.114;2022-08-18T12:05:49;26.40;87.80
49729;DHT22;35617;50.714;7.114;2022-08-18T12:08:29;26.40;86.80
49729;DHT22;35617;50.714;7.114;2022-08-18T12:11:03;26.40;86.50
49729;DHT22;35617;50.714;7.114;2022-08-18T12:13:29;26.30;86.20
49729;DHT22;35617;50.714;7.114;2022-08-18T12:16:29;26.20;85.80
49729;DHT22;35617;50.714;7.114;2022-08-18T12:18:56;26.20;86.50
49729;DHT22;35617;50.714;7.114;2022-08-18T12:21:22;26.30;86.40
49729;DHT22;35617;50.714;7.114;2022-08-18T12:23:47;26.40;86.00
49729;DHT22;35617;50.714;7.114;2022-08-18T12:26:13;26.50;85.60
49729;DHT22;35617;50.714;7.114;2022-08-18T12:28:39;26.60;85.00
49729;DHT22;35617;50.714;7.114;2022-08-18T12:31:06;26.80;84.00
49729;DHT22;35617;50.714;7.114;2022-08-18T12:33:32;26.90;83.20
49729;DHT22;35617;50.714;7.114;2022-08-18T12:35:58;27.00;82.50
49729;DHT22;35617;50.714;7.114;2022-08-18T12:38:25;27.20;82.00
49729;DHT22;35617;50.714;7.114;2022-08-18T12:40:50;27.30;81.30
49729;DHT22;35617;50.714;7.114;2022-08-18T12:43:16;27.30;81.20
49729;DHT22;35617;50.714;7.114;2022-08-18T12:45:41;27.30;80.90
49729;DHT22;35617;50.714;7.114;2022-08-18T12:48:07;27.40;81.00
49729;DHT22;35617;50.714;7.114;2022-08-18T12:50:34;27.50;80.10
49729;DHT22;35617;50.714;7.114;2022-08-18T12:53:00;27.60;78.30
49729;DHT22;35617;50.714;7.114;2022-08-18T12:55:27;27.50;78.10
49729;DHT22;35617;50.714;7.114;2022-08-18T12:57:54;27.40;78.10
49729;DHT22;35617;50.714;7.114;2022-08-18T13:00:20;27.40;78.90
49729;DHT22;35617;50.714;7.114;2022-08-18T13:02:45;27.50;78.90
49729;DHT22;35617;50.714;7.114;2022-08-18T13:05:11;27.60;77.70
49729;DHT22;35617;50.714;7.114;2022-08-18T13:07:37;27.50;78.10
49729;DHT22;35617;50.714;7.114;2022-08-18T13:10:03;27.50;78.40
49729;DHT22;35617;50.714;7.114;2022-08-18T13:12:29;27.30;78.30
49729;DHT22;35617;50.714;7.114;2022-08-18T13:14:54;27.30;77.40
49729;DHT22;35617;50.714;7.114;2022-08-18T13:17:20;27.30;77.90
49729;DHT22;35617;50.714;7.114;2022-08-18T13:19:46;27.40;78.00
49729;DHT22;35617;50.714;7.114;2022-08-18T13:22:12;27.50;77.90
49729;DHT22;35617;50.714;7.114;2022-08-18T13:24:38;27.60;77.80
49729;DHT22;35617;50.714;7.114;2022-08-18T13:27:04;27.60;78.10
49729;DHT22;35617;50.714;7.114;2022-08-18T13:29:29;27.80;78.50
49729;DHT22;35617;50.714;7.114;2022-08-18T13:31:55;28.00;76.90
49729;DHT22;35617;50.714;7.114;2022-08-18T13:34:27;27.80;74.60
49729;DHT22;35617;50.714;7.114;2022-08-18T13:36:53;27.80;74.70
49729;DHT22;35617;50.714;7.114;2022-08-18T13:39:21;27.80;74.50
49729;DHT22;35617;50.714;7.114;2022-08-18T13:41:50;27.90;74.80
49729;DHT22;35617;50.714;7.114;2022-08-18T13:44:17;27.90;75.70
49729;DHT22;35617;50.714;7.114;2022-08-18T13:46:45;28.00;75.60
49729;DHT22;35617;50.714;7.114;2022-08-18T13:49:12;28.10;75.10
49729;DHT22;35617;50.714;7.114;2022-08-18T13:51:39;28.30;74.50
49729;DHT22;35617;50.714;7.114;2022-08-18T13:54:06;28.30;74.30
49729;DHT22;35617;50.714;7.114;2022-08-18T13:56:32;28.30;72.20
49729;DHT22;35617;50.714;7.114;2022-08-18T13:58:58;28.20;72.50
49729;DHT22;35617;50.714;7.114;2022-08-18T14:01:24;28.30;72.00
49729;DHT22;35617;50.714;7.114;2022-08-18T14:03:49;28.30;72.10
49729;DHT22;35617;50.714;7.114;2022-08-18T14:06:15;28.50;72.00
49729;DHT22;35617;50.714;7.114;2022-08-18T14:08:41;28.40;71.70
49729;DHT22;35617;50.714;7.114;2022-08-18T14:11:07;28.40;72.40
49729;DHT22;35617;50.714;7.114;2022-08-18T14:13:33;28.30;71.80
49729;DHT22;35617;50.714;7.114;2022-08-18T14:15:59;28.40;71.30
49729;DHT22;35617;50.714;7.114;2022-08-18T14:18:26;28.40;71.20
49729;DHT22;35617;50.714;7.114;2022-08-18T14:20:54;28.40;70.50
49729;DHT22;35617;50.714;7.114;2022-08-18T14:23:38;28.30;70.90
49729;DHT22;35617;50.714;7.114;2022-08-18T14:26:29;28.30;71.10
49729;DHT22;35617;50.714;7.114;2022-08-18T14:29:14;28.40;70.50
49729;DHT22;35617;50.714;7.114;2022-08-18T14:31:40;28.30;71.00
49729;DHT22;35617;50.714;7.114;2022-08-18T14:34:06;28.40;70.20
49729;DHT22;35617;50.714;7.114;2022-08-18T14:36:32;28.40;69.70
49729;DHT22;35617;50.714;7.114;2022-08-18T14:38:58;28.40;69.50
49729;DHT22;35617;50.714;7.114;2022-08-18T14:41:25;28.30;69.40
49729;DHT22;35617;50.714;7.114;2022-08-18T14:43:51;28.40;70.10
49729;DHT22;35617;50.714;7.114;2022-08-18T14:46:17;28.40;69.70
49729;DHT22;35617;50.714;7.114;2022-08-18T14:48:43;28.50;69.00
49729;DHT22;35617;50.714;7.114;2022-08-18T14:51:09;28.60;68.90
49729;DHT22;35617;50.714;7.114;2022-08-18T14:53:35;28.70;68.80
49729;DHT22;35617;50.714;7.114;2022-08-18T14:56:04;28.80;68.80
49729;DHT22;35617;50.714;7.114;2022-08-18T14:58:31;28.90;67.80
49729;DHT22;35617;50.714;7.114;2022-08-18T15:01:00;28.80;67.70
49729;DHT22;35617;50.714;7.114;2022-08-18T15:03:29;28.60;67.60
49729;DHT22;35617;50.714;7.114;2022-08-18T15:05:55;28.50;67.80
49729;DHT22;35617;50.714;7.114;2022-08-18T15:08:21;28.40;67.70
49729;DHT22;35617;50.714;7.114;2022-08-18T15:10:47;28.40;68.10
49729;DHT22;35617;50.714;7.114;2022-08-18T15:13:13;28.30;68.20
49729;DHT22;35617;50.714;7.114;2022-08-18T15:15:39;28.40;68.10
49729;DHT22;35617;50.714;7.114;2022-08-18T15:18:05;28.40;68.20
49729;DHT22;35617;50.714;7.114;2022-08-18T15:20:31;28.60;68.10
49729;DHT22;35617;50.714;7.114;2022-08-18T15:23:02;28.60;67.20
49729;DHT22;35617;50.714;7.114;2022-08-18T15:25:47;28.50;67.10
49729;DHT22;35617;50.714;7.114;2022-08-18T15:28:20;28.50;67.60
49729;DHT22;35617;50.714;7.114;2022-08-18T15:30:48;28.70;66.70
49729;DHT22;35617;50.714;7.114;2022-08-18T15:33:15;28.70;66.60
49729;DHT22;35617;50.714;7.114;2022-08-18T15:35:42;28.70;66.50
49729;DHT22;35617;50.714;7.114;2022-08-18T15:38:09;28.70;66.40
49729;DHT22;35617;50.714;7.114;2022-08-18T15:40:38;28.70;65.90
49729;DHT22;35617;50.714;7.114;2022-08-18T15:43:10;28.80;66.90
49729;DHT22;35617;50.714;7.114;2022-08-18T15:45:39;29.00;65.60
49729;DHT22;35617;50.714;7.114;2022-08-18T15:48:05;29.20;65.70
49729;DHT22;35617;50.714;7.114;2022-08-18T15:50:31;29.30;65.80
49729;DHT22;35617;50.714;7.114;2022-08-18T15:52:59;29.40;64.20
49729;DHT22;35617;50.714;7.114;2022-08-18T15:55:29;29.50;63.60
49729;DHT22;35617;50.714;7.114;2022-08-18T15:57:56;29.70;63.30
49729;DHT22;35617;50.714;7.114;2022-08-18T16:00:23;29.70;63.00
49729;DHT22;35617;50.714;7.114;2022-08-18T16:02:54;29.70;62.30
49729;DHT22;35617;50.714;7.114;2022-08-18T16:05:23;29.50;61.20
49729;DHT22;35617;50.714;7.114;2022-08-18T16:07:50;29.30;61.50
49729;DHT22;35617;50.714;7.114;2022-08-18T16:10:19;29.10;62.10
49729;DHT22;35617;50.714;7.114;2022-08-18T16:12:46;29.00;62.30
49729;DHT22;35617;50.714;7.114;2022-08-18T16:15:14;28.90;61.40
49729;DHT22;35617;50.714;7.114;2022-08-18T16:17:39;28.70;62.10
49729;DHT22;35617;50.714;7.114;2022-08-18T16:20:05;28.50;62.50
49729;DHT22;35617;50.714;7.114;2022-08-18T16:22:33;28.40;62.90
49729;DHT22;35617;50.714;7.114;2022-08-18T16:24:59;28.40;63.00
49729;DHT22;35617;50.714;7.114;2022-08-18T16:27:29;28.50;63.20
49729;DHT22;35617;50.714;7.114;2022-08-18T16:29:56;28.70;62.40
49729;DHT22;35617;50.714;7.114;2022-08-18T16:32:21;28.70;61.80
49729;DHT22;35617;50.714;7.114;2022-08-18T16:34:47;28.60;61.60
49729;DHT22;35617;50.714;7.114;2022-08-18T16:37:13;28.60;61.50
49729;DHT22;35617;50.714;7.114;2022-08-18T16:39:39;28.60;61.70
49729;DHT22;35617;50.714;7.114;2022-08-18T16:42:04;28.40;61.70
49729;DHT22;35617;50.714;7.114;2022-08-18T16:44:31;28.50;61.80
49729;DHT22;35617;50.714;7.114;2022-08-18T16:46:58;28.70;61.80
49729;DHT22;35617;50.714;7.114;2022-08-18T16:49:26;29.00;61.30
49729;DHT22;35617;50.714;7.114;2022-08-18T16:51:52;29.20;60.40
49729;DHT22;35617;50.714;7.114;2022-08-18T16:54:17;29.40;60.30
49729;DHT22;35617;50.714;7.114;2022-08-18T16:56:43;29.50;59.70
49729;DHT22;35617;50.714;7.114;2022-08-18T16:59:08;29.60;59.70
49729;DHT22;35617;50.714;7.114;2022-08-18T17:01:52;29.70;59.50
49729;DHT22;35617;50.714;7.114;2022-08-18T17:04:37;29.70;59.70
49729;DHT22;35617;50.714;7.114;2022-08-18T17:07:03;29.90;59.50
49729;DHT22;35617;50.714;7.114;2022-08-18T17:09:30;30.00;58.90
49729;DHT22;35617;50.714;7.114;2022-08-18T17:11:57;30.20;58.30
49729;DHT22;35617;50.714;7.114;2022-08-18T17:14:25;30.40;58.20
49729;DHT22;35617;50.714;7.114;2022-08-18T17:16:53;30.70;57.10
49729;DHT22;35617;50.714;7.114;2022-08-18T17:19:25;30.80;56.90
49729;DHT22;35617;50.714;7.114;2022-08-18T17:21:52;30.80;56.90
49729;DHT22;35617;50.714;7.114;2022-08-18T17:24:18;30.70;56.60
49729;DHT22;35617;50.714;7.114;2022-08-18T17:26:52;30.60;56.70
49729;DHT22;35617;50.714;7.114;2022-08-18T17:35:07;30.30;57.00
49729;DHT22;35617;50.714;7.114;2022-08-18T17:37:34;30.20;57.30
49729;DHT22;35617;50.714;7.114;2022-08-18T17:40:16;30.00;57.40
49729;DHT22;35617;50.714;7.114;2022-08-18T17:42:43;29.80;58.10
49729;DHT22;35617;50.714;7.114;2022-08-18T17:45:10;29.60;58.40
49729;DHT22;35617;50.714;7.114;2022-08-18T17:47:59;29.40;58.70
49729;DHT22;35617;50.714;7.114;2022-08-18T17:50:35;29.20;58.80
49729;DHT22;35617;50.714;7.114;2022-08-18T17:53:21;28.90;59.20
49729;DHT22;35617;50.714;7.114;2022-08-18T17:55:58;28.60;59.60
49729;DHT22;35617;50.714;7.114;2022-08-18T17:58:33;28.40;60.20
49729;DHT22;35617;50.714;7.114;2022-08-18T18:01:03;28.30;60.70
49729;DHT22;35617;50.714;7.114;2022-08-18T18:03:29;28.10;61.10
49729;DHT22;35617;50.714;7.114;2022-08-18T18:06:01;27.90;61.60
49729;DHT22;35617;50.714;7.114;2022-08-18T18:09:09;27.80;62.00
49729;DHT22;35617;50.714;7.114;2022-08-18T18:11:39;27.80;62.00
49729;DHT22;35617;50.714;7.114;2022-08-18T18:17:23;27.50;62.20
49729;DHT22;35617;50.714;7.114;2022-08-18T18:20:10;27.40;62.60
49729;DHT22;35617;50.714;7.114;2022-08-18T18:22:38;27.30;63.10
49729;DHT22;35617;50.714;7.114;2022-08-18T18:25:05;27.20;63.20
49729;DHT22;35617;50.714;7.114;2022-08-18T18:32:35;27.00;63.80
49729;DHT22;35617;50.714;7.114;2022-08-18T18:35:17;26.90;64.00
49729;DHT22;35617;50.714;7.114;2022-08-18T18:37:48;26.90;64.30
49729;DHT22;35617;50.714;7.114;2022-08-18T18:40:26;26.90;64.60
49729;DHT22;35617;50.714;7.114;2022-08-18T18:42:53;26.80;64.80
49729;DHT22;35617;50.714;7.114;2022-08-18T18:45:26;26.70;64.80